sensor_id;sensor_type;location;lat;lon;timestamp;P1;durP1;ratioP1;P2;durP2;ratioP2
52380;SDS011;38310;52.796;6.942;2022-08-01T00:01:56;7.78;;;4.43;;
52380;SDS011;38310;52.796;6.942;2022-08-01T00:04:22;5.70;;;3.80;;
52380;SDS011;38310;52.796;6.942;2022-08-01T00:06:48;7.20;;;4.25;;
52380;SDS011;38310;52.796;6.942;2022-08-01T00:09:14;6.07;;;3.92;;
52380;SDS011;38310;52.796;6.942;2022-08-01T00:11:39;7.28;;;4.70;;
52380;SDS011;38310;52.796;6.942;2022-08-01T00:14:07;6.10;;;4.13;;
52380;SDS011;38310;52.796;6.942;2022-08-01T00:16:34;7.82;;;5.25;;
52380;SDS011;38310;52.796;6.942;2022-08-01T00:19:00;7.00;;;4.75;;
52380;SDS011;38310;52.796;6.942;2022-08-01T00:21:26;8.98;;;4.97;;
52380;SDS011;38310;52.796;6.942;2022-08-01T00:23:52;7.47;;;4.68;;
52380;SDS011;38310;52.796;6.942;2022-08-01T00:26:18;9.07;;;5.85;;
52380;SDS011;38310;52.796;6.942;2022-08-01T00:28:44;8.80;;;5.88;;
52380;SDS011;38310;52.796;6.942;2022-08-01T00:31:10;10.85;;;6.32;;
52380;SDS011;38310;52.796;6.942;2022-08-01T00:33:36;10.18;;;5.95;;
52380;SDS011;38310;52.796;6.942;2022-08-01T00:36:01;8.20;;;5.45;;
52380;SDS011;38310;52.796;6.942;2022-08-01T00:38:27;10.90;;;6.00;;
52380;SDS011;38310;52.796;6.942;2022-08-01T00:40:53;9.45;;;6.10;;
52380;SDS011;38310;52.796;6.942;2022-08-01T00:43:19;8.95;;;5.22;;
52380;SDS011;38310;52.796;6.942;2022-08-01T00:45:44;11.95;;;6.63;;
52380;SDS011;38310;52.796;6.942;2022-08-01T00:48:10;8.85;;;5.68;;
52380;SDS011;38310;52.796;6.942;2022-08-01T00:50:36;8.13;;;5.43;;
52380;SDS011;38310;52.796;6.942;2022-08-01T00:53:03;10.98;;;6.45;;
52380;SDS011;38310;52.796;6.942;2022-08-01T00:55:29;10.13;;;6.50;;
52380;SDS011;38310;52.796;6.942;2022-08-01T00:57:56;8.50;;;5.10;;
52380;SDS011;38310;52.796;6.942;2022-08-01T01:00:22;10.10;;;6.50;;
52380;SDS011;38310;52.796;6.942;2022-08-01T01:08:08;10.17;;;6.50;;
52380;SDS011;38310;52.796;6.942;2022-08-01T01:13:49;10.23;;;6.93;;
52380;SDS011;38310;52.796;6.942;2022-08-01T01:16:22;12.63;;;7.38;;
52380;SDS011;38310;52.796;6.942;2022-08-01T01:18:51;11.68;;;7.15;;
52380;SDS011;38310;52.796;6.942;2022-08-01T01:32:07;10.68;;;6.75;;
52380;SDS011;38310;52.796;6.942;2022-08-01T01:34:40;13.73;;;7.68;;
52380;SDS011;38310;52.796;6.942;2022-08-01T01:37:09;12.13;;;7.70;;
52380;SDS011;38310;52.796;6.942;2022-08-01T01:39:39;13.20;;;8.05;;
52380;SDS011;38310;52.796;6.942;2022-08-01T01:42:06;11.45;;;7.28;;
52380;SDS011;38310;52.796;6.942;2022-08-01T01:44:33;17.55;;;7.75;;
52380;SDS011;38310;52.796;6.942;2022-08-01T01:47:00;14.75;;;8.75;;
52380;SDS011;38310;52.796;6.942;2022-08-01T01:49:27;12.07;;;7.53;;
52380;SDS011;38310;52.796;6.942;2022-08-01T01:51:55;12.18;;;7.00;;
52380;SDS011;38310;52.796;6.942;2022-08-01T01:54:22;10.65;;;6.22;;
52380;SDS011;38310;52.796;6.942;2022-08-01T01:56:53;12.02;;;7.82;;
52380;SDS011;38310;52.796;6.942;2022-08-01T01:59:24;12.32;;;8.20;;
52380;SDS011;38310;52.796;6.942;2022-08-01T02:01:54;9.82;;;6.35;;
52380;SDS011;38310;52.796;6.942;2022-08-01T02:04:23;13.40;;;7.03;;
52380;SDS011;38310;52.796;6.942;2022-08-01T02:06:51;13.43;;;7.63;;
52380;SDS011;38310;52.796;6.942;2022-08-01T02:09:18;12.32;;;7.45;;
52380;SDS011;38310;52.796;6.942;2022-08-01T02:11:48;16.60;;;8.38;;
52380;SDS011;38310;52.796;6.942;2022-08-01T02:14:16;15.52;;;8.23;;
52380;SDS011;38310;52.796;6.942;2022-08-01T02:16:44;13.98;;;8.55;;
52380;SDS011;38310;52.796;6.942;2022-08-01T02:19:13;14.95;;;9.10;;
52380;SDS011;38310;52.796;6.942;2022-08-01T02:24:24;12.13;;;7.72;;
52380;SDS011;38310;52.796;6.942;2022-08-01T02:27:03;11.75;;;7.30;;
52380;SDS011;38310;52.796;6.942;2022-08-01T02:29:36;10.48;;;5.97;;
52380;SDS011;38310;52.796;6.942;2022-08-01T02:32:07;8.60;;;4.95;;
52380;SDS011;38310;52.796;6.942;2022-08-01T02:34:36;9.57;;;5.55;;
52380;SDS011;38310;52.796;6.942;2022-08-01T02:37:03;6.75;;;4.70;;
52380;SDS011;38310;52.796;6.942;2022-08-01T02:39:31;10.25;;;6.45;;
52380;SDS011;38310;52.796;6.942;2022-08-01T02:42:00;10.25;;;5.65;;
52380;SDS011;38310;52.796;6.942;2022-08-01T02:44:31;11.63;;;5.60;;
52380;SDS011;38310;52.796;6.942;2022-08-01T02:47:04;9.40;;;6.25;;
52380;SDS011;38310;52.796;6.942;2022-08-01T02:49:31;11.18;;;5.50;;
52380;SDS011;38310;52.796;6.942;2022-08-01T02:52:10;10.52;;;5.40;;
52380;SDS011;38310;52.796;6.942;2022-08-01T02:54:38;9.10;;;5.32;;
52380;SDS011;38310;52.796;6.942;2022-08-01T02:57:05;11.18;;;4.85;;
52380;SDS011;38310;52.796;6.942;2022-08-01T02:59:33;8.10;;;5.03;;
52380;SDS011;38310;52.796;6.942;2022-08-01T03:02:02;9.50;;;4.47;;
52380;SDS011;38310;52.796;6.942;2022-08-01T03:04:30;7.68;;;4.28;;
52380;SDS011;38310;52.796;6.942;2022-08-01T03:06:58;8.07;;;5.13;;
52380;SDS011;38310;52.796;6.942;2022-08-01T03:09:27;11.10;;;4.97;;
52380;SDS011;38310;52.796;6.942;2022-08-01T03:11:55;9.52;;;4.75;;
52380;SDS011;38310;52.796;6.942;2022-08-01T03:14:25;5.55;;;3.78;;
52380;SDS011;38310;52.796;6.942;2022-08-01T03:16:51;5.78;;;4.13;;
52380;SDS011;38310;52.796;6.942;2022-08-01T03:19:18;8.57;;;3.75;;
52380;SDS011;38310;52.796;6.942;2022-08-01T03:21:45;5.43;;;3.40;;
52380;SDS011;38310;52.796;6.942;2022-08-01T03:24:13;9.50;;;3.70;;
52380;SDS011;38310;52.796;6.942;2022-08-01T03:26:39;8.95;;;3.95;;
52380;SDS011;38310;52.796;6.942;2022-08-01T03:29:08;7.10;;;2.95;;
52380;SDS011;38310;52.796;6.942;2022-08-01T03:31:39;9.25;;;3.20;;
52380;SDS011;38310;52.796;6.942;2022-08-01T03:34:08;7.32;;;3.70;;
52380;SDS011;38310;52.796;6.942;2022-08-01T03:36:34;8.07;;;3.25;;
52380;SDS011;38310;52.796;6.942;2022-08-01T03:39:12;6.10;;;3.28;;
52380;SDS011;38310;52.796;6.942;2022-08-01T03:41:41;4.53;;;2.95;;
52380;SDS011;38310;52.796;6.942;2022-08-01T03:44:15;6.47;;;3.10;;
52380;SDS011;38310;52.796;6.942;2022-08-01T03:46:44;4.40;;;2.75;;
52380;SDS011;38310;52.796;6.942;2022-08-01T03:49:17;6.22;;;2.67;;
52380;SDS011;38310;52.796;6.942;2022-08-01T03:51:48;8.10;;;3.42;;
52380;SDS011;38310;52.796;6.942;2022-08-01T03:54:20;6.72;;;3.17;;
52380;SDS011;38310;52.796;6.942;2022-08-01T03:56:48;8.52;;;3.30;;
52380;SDS011;38310;52.796;6.942;2022-08-01T03:59:16;7.57;;;2.90;;
52380;SDS011;38310;52.796;6.942;2022-08-01T04:01:44;6.05;;;3.10;;
52380;SDS011;38310;52.796;6.942;2022-08-01T04:04:11;4.47;;;2.97;;
52380;SDS011;38310;52.796;6.942;2022-08-01T04:06:38;6.13;;;3.15;;
52380;SDS011;38310;52.796;6.942;2022-08-01T04:09:04;7.88;;;2.97;;
52380;SDS011;38310;52.796;6.942;2022-08-01T04:11:32;10.20;;;2.63;;
52380;SDS011;38310;52.796;6.942;2022-08-01T04:13:58;7.20;;;2.65;;
52380;SDS011;38310;52.796;6.942;2022-08-01T04:16:24;5.88;;;3.00;;
52380;SDS011;38310;52.796;6.942;2022-08-01T04:18:49;6.35;;;2.88;;
52380;SDS011;38310;52.796;6.942;2022-08-01T04:21:18;7.10;;;2.70;;
52380;SDS011;38310;52.796;6.942;2022-08-01T04:23:47;6.18;;;3.00;;
52380;SDS011;38310;52.796;6.942;2022-08-01T04:26:16;4.18;;;2.95;;
52380;SDS011;38310;52.796;6.942;2022-08-01T04:28:43;4.53;;;2.97;;
52380;SDS011;38310;52.796;6.942;2022-08-01T04:31:10;6.20;;;3.13;;
52380;SDS011;38310;52.796;6.942;2022-08-01T04:33:40;7.20;;;2.90;;
52380;SDS011;38310;52.796;6.942;2022-08-01T04:36:10;8.73;;;3.38;;
52380;SDS011;38310;52.796;6.942;2022-08-01T04:38:40;7.18;;;2.90;;
52380;SDS011;38310;52.796;6.942;2022-08-01T04:41:07;5.88;;;2.72;;
52380;SDS011;38310;52.796;6.942;2022-08-01T04:43:36;6.78;;;2.50;;
52380;SDS011;38310;52.796;6.942;2022-08-01T04:46:02;8.25;;;2.63;;
52380;SDS011;38310;52.796;6.942;2022-08-01T04:48:30;7.43;;;2.50;;
52380;SDS011;38310;52.796;6.942;2022-08-01T04:51:00;8.63;;;3.10;;
52380;SDS011;38310;52.796;6.942;2022-08-01T04:53:26;4.88;;;2.58;;
52380;SDS011;38310;52.796;6.942;2022-08-01T04:55:52;8.35;;;3.03;;
52380;SDS011;38310;52.796;6.942;2022-08-01T04:58:18;5.68;;;2.90;;
52380;SDS011;38310;52.796;6.942;2022-08-01T05:00:45;6.03;;;2.95;;
52380;SDS011;38310;52.796;6.942;2022-08-01T05:03:11;4.43;;;2.88;;
52380;SDS011;38310;52.796;6.942;2022-08-01T05:05:37;6.85;;;3.42;;
52380;SDS011;38310;52.796;6.942;2022-08-01T05:08:03;9.57;;;4.03;;
52380;SDS011;38310;52.796;6.942;2022-08-01T05:10:28;5.13;;;3.05;;
52380;SDS011;38310;52.796;6.942;2022-08-01T05:12:55;6.78;;;3.10;;
52380;SDS011;38310;52.796;6.942;2022-08-01T05:15:21;9.85;;;3.63;;
52380;SDS011;38310;52.796;6.942;2022-08-01T05:17:47;5.40;;;3.08;;
52380;SDS011;38310;52.796;6.942;2022-08-01T05:20:13;9.18;;;4.13;;
52380;SDS011;38310;52.796;6.942;2022-08-01T05:22:38;10.27;;;3.65;;
52380;SDS011;38310;52.796;6.942;2022-08-01T05:25:04;8.30;;;3.55;;
52380;SDS011;38310;52.796;6.942;2022-08-01T05:27:31;7.55;;;3.13;;
52380;SDS011;38310;52.796;6.942;2022-08-01T05:29:57;7.38;;;3.50;;
52380;SDS011;38310;52.796;6.942;2022-08-01T05:32:22;9.45;;;4.13;;
52380;SDS011;38310;52.796;6.942;2022-08-01T05:34:48;6.57;;;3.45;;
52380;SDS011;38310;52.796;6.942;2022-08-01T05:37:14;8.85;;;3.67;;
52380;SDS011;38310;52.796;6.942;2022-08-01T05:39:40;9.30;;;3.85;;
52380;SDS011;38310;52.796;6.942;2022-08-01T05:42:06;8.27;;;3.15;;
52380;SDS011;38310;52.796;6.942;2022-08-01T05:44:32;11.60;;;3.53;;
52380;SDS011;38310;52.796;6.942;2022-08-01T05:46:57;8.02;;;3.75;;
52380;SDS011;38310;52.796;6.942;2022-08-01T05:49:23;10.35;;;4.55;;
52380;SDS011;38310;52.796;6.942;2022-08-01T05:51:49;8.32;;;3.65;;
52380;SDS011;38310;52.796;6.942;2022-08-01T05:54:14;8.48;;;3.53;;
52380;SDS011;38310;52.796;6.942;2022-08-01T05:56:40;10.20;;;3.97;;
52380;SDS011;38310;52.796;6.942;2022-08-01T05:59:06;9.30;;;4.43;;
52380;SDS011;38310;52.796;6.942;2022-08-01T06:01:32;7.90;;;4.03;;
52380;SDS011;38310;52.796;6.942;2022-08-01T06:03:58;9.38;;;4.15;;
52380;SDS011;38310;52.796;6.942;2022-08-01T06:06:23;15.30;;;4.28;;
52380;SDS011;38310;52.796;6.942;2022-08-01T06:08:49;11.13;;;3.75;;
52380;SDS011;38310;52.796;6.942;2022-08-01T06:11:15;7.25;;;3.10;;
52380;SDS011;38310;52.796;6.942;2022-08-01T06:13:41;10.82;;;4.18;;
52380;SDS011;38310;52.796;6.942;2022-08-01T06:16:07;11.07;;;3.72;;
52380;SDS011;38310;52.796;6.942;2022-08-01T06:18:32;9.63;;;3.60;;
52380;SDS011;38310;52.796;6.942;2022-08-01T06:20:58;12.75;;;4.55;;
52380;SDS011;38310;52.796;6.942;2022-08-01T06:23:24;11.52;;;3.58;;
52380;SDS011;38310;52.796;6.942;2022-08-01T06:25:52;7.93;;;3.28;;
52380;SDS011;38310;52.796;6.942;2022-08-01T06:28:19;9.18;;;3.60;;
52380;SDS011;38310;52.796;6.942;2022-08-01T06:30:45;13.13;;;4.28;;
52380;SDS011;38310;52.796;6.942;2022-08-01T06:33:11;11.38;;;3.70;;
52380;SDS011;38310;52.796;6.942;2022-08-01T06:35:37;11.50;;;3.95;;
52380;SDS011;38310;52.796;6.942;2022-08-01T06:38:02;13.30;;;3.72;;
52380;SDS011;38310;52.796;6.942;2022-08-01T06:40:28;9.88;;;3.35;;
52380;SDS011;38310;52.796;6.942;2022-08-01T06:42:54;8.05;;;3.15;;
52380;SDS011;38310;52.796;6.942;2022-08-01T06:45:20;13.10;;;4.03;;
52380;SDS011;38310;52.796;6.942;2022-08-01T06:47:47;7.63;;;2.70;;
52380;SDS011;38310;52.796;6.942;2022-08-01T06:50:13;10.27;;;3.70;;
52380;SDS011;38310;52.796;6.942;2022-08-01T06:52:40;7.18;;;3.33;;
52380;SDS011;38310;52.796;6.942;2022-08-01T06:55:06;12.05;;;3.50;;
52380;SDS011;38310;52.796;6.942;2022-08-01T06:57:33;9.35;;;3.85;;
52380;SDS011;38310;52.796;6.942;2022-08-01T07:00:05;22.92;;;4.30;;
52380;SDS011;38310;52.796;6.942;2022-08-01T07:02:37;15.15;;;3.40;;
52380;SDS011;38310;52.796;6.942;2022-08-01T07:05:03;8.35;;;3.03;;
52380;SDS011;38310;52.796;6.942;2022-08-01T07:07:30;14.63;;;3.83;;
52380;SDS011;38310;52.796;6.942;2022-08-01T07:09:56;17.58;;;4.20;;
52380;SDS011;38310;52.796;6.942;2022-08-01T07:12:22;8.25;;;3.50;;
52380;SDS011;38310;52.796;6.942;2022-08-01T07:14:47;15.43;;;3.70;;
52380;SDS011;38310;52.796;6.942;2022-08-01T07:17:13;10.57;;;3.47;;
52380;SDS011;38310;52.796;6.942;2022-08-01T07:19:39;9.18;;;3.63;;
52380;SDS011;38310;52.796;6.942;2022-08-01T07:22:04;9.98;;;3.47;;
52380;SDS011;38310;52.796;6.942;2022-08-01T07:24:30;12.05;;;3.78;;
52380;SDS011;38310;52.796;6.942;2022-08-01T07:26:56;11.82;;;4.25;;
52380;SDS011;38310;52.796;6.942;2022-08-01T07:29:23;12.93;;;4.03;;
52380;SDS011;38310;52.796;6.942;2022-08-01T07:31:50;15.98;;;3.78;;
52380;SDS011;38310;52.796;6.942;2022-08-01T07:34:20;13.07;;;4.18;;
52380;SDS011;38310;52.796;6.942;2022-08-01T07:36:47;14.07;;;4.97;;
52380;SDS011;38310;52.796;6.942;2022-08-01T07:39:14;13.32;;;3.65;;
52380;SDS011;38310;52.796;6.942;2022-08-01T07:41:40;15.85;;;4.55;;
52380;SDS011;38310;52.796;6.942;2022-08-01T07:44:06;11.00;;;3.50;;
52380;SDS011;38310;52.796;6.942;2022-08-01T07:46:31;11.57;;;3.10;;
52380;SDS011;38310;52.796;6.942;2022-08-01T07:48:57;8.73;;;3.78;;
52380;SDS011;38310;52.796;6.942;2022-08-01T07:51:23;11.40;;;3.88;;
52380;SDS011;38310;52.796;6.942;2022-08-01T07:53:48;16.35;;;4.18;;
52380;SDS011;38310;52.796;6.942;2022-08-01T07:56:14;12.68;;;3.90;;
52380;SDS011;38310;52.796;6.942;2022-08-01T07:58:40;12.23;;;3.38;;
52380;SDS011;38310;52.796;6.942;2022-08-01T08:01:06;11.35;;;3.90;;
52380;SDS011;38310;52.796;6.942;2022-08-01T08:03:32;23.73;;;4.60;;
52380;SDS011;38310;52.796;6.942;2022-08-01T08:05:57;8.63;;;3.38;;
52380;SDS011;38310;52.796;6.942;2022-08-01T08:08:23;13.52;;;3.58;;
52380;SDS011;38310;52.796;6.942;2022-08-01T08:10:49;13.00;;;3.72;;
52380;SDS011;38310;52.796;6.942;2022-08-01T08:13:15;14.13;;;3.95;;
52380;SDS011;38310;52.796;6.942;2022-08-01T08:15:41;16.02;;;3.58;;
52380;SDS011;38310;52.796;6.942;2022-08-01T08:18:06;13.25;;;4.18;;
52380;SDS011;38310;52.796;6.942;2022-08-01T08:20:32;13.75;;;3.92;;
52380;SDS011;38310;52.796;6.942;2022-08-01T08:22:58;11.52;;;3.33;;
52380;SDS011;38310;52.796;6.942;2022-08-01T08:25:24;13.18;;;3.30;;
52380;SDS011;38310;52.796;6.942;2022-08-01T08:27:51;10.18;;;3.33;;
52380;SDS011;38310;52.796;6.942;2022-08-01T08:30:17;14.25;;;4.38;;
52380;SDS011;38310;52.796;6.942;2022-08-01T08:32:43;13.15;;;3.72;;
52380;SDS011;38310;52.796;6.942;2022-08-01T08:35:09;8.65;;;3.30;;
52380;SDS011;38310;52.796;6.942;2022-08-01T08:37:39;12.07;;;3.70;;
52380;SDS011;38310;52.796;6.942;2022-08-01T08:40:05;10.88;;;3.47;;
52380;SDS011;38310;52.796;6.942;2022-08-01T08:42:32;8.52;;;2.88;;
52380;SDS011;38310;52.796;6.942;2022-08-01T08:44:58;11.88;;;4.05;;
52380;SDS011;38310;52.796;6.942;2022-08-01T08:47:24;8.52;;;3.47;;
52380;SDS011;38310;52.796;6.942;2022-08-01T08:49:53;14.40;;;3.90;;
52380;SDS011;38310;52.796;6.942;2022-08-01T08:52:21;11.43;;;3.15;;
52380;SDS011;38310;52.796;6.942;2022-08-01T08:54:48;9.38;;;3.40;;
52380;SDS011;38310;52.796;6.942;2022-08-01T08:57:15;10.77;;;3.25;;
52380;SDS011;38310;52.796;6.942;2022-08-01T08:59:43;14.00;;;3.22;;
52380;SDS011;38310;52.796;6.942;2022-08-01T09:02:10;11.77;;;3.30;;
52380;SDS011;38310;52.796;6.942;2022-08-01T09:04:37;9.02;;;3.60;;
52380;SDS011;38310;52.796;6.942;2022-08-01T09:07:05;11.90;;;3.13;;
52380;SDS011;38310;52.796;6.942;2022-08-01T09:09:32;9.88;;;3.03;;
52380;SDS011;38310;52.796;6.942;2022-08-01T09:11:58;14.00;;;3.40;;
52380;SDS011;38310;52.796;6.942;2022-08-01T09:14:25;9.25;;;3.25;;
52380;SDS011;38310;52.796;6.942;2022-08-01T09:19:35;9.32;;;3.20;;
52380;SDS011;38310;52.796;6.942;2022-08-01T09:22:19;13.50;;;3.35;;
52380;SDS011;38310;52.796;6.942;2022-08-01T09:24:58;6.80;;;3.10;;
52380;SDS011;38310;52.796;6.942;2022-08-01T09:27:32;8.73;;;3.58;;
52380;SDS011;38310;52.796;6.942;2022-08-01T09:30:16;12.90;;;3.30;;
52380;SDS011;38310;52.796;6.942;2022-08-01T09:32:57;9.48;;;3.08;;
52380;SDS011;38310;52.796;6.942;2022-08-01T09:35:34;10.23;;;3.00;;
52380;SDS011;38310;52.796;6.942;2022-08-01T09:43:23;14.05;;;3.38;;
52380;SDS011;38310;52.796;6.942;2022-08-01T09:45:51;9.13;;;2.97;;
52380;SDS011;38310;52.796;6.942;2022-08-01T09:48:17;14.63;;;3.28;;
52380;SDS011;38310;52.796;6.942;2022-08-01T09:50:46;10.90;;;2.95;;
52380;SDS011;38310;52.796;6.942;2022-08-01T09:53:14;14.00;;;3.70;;
52380;SDS011;38310;52.796;6.942;2022-08-01T09:55:41;14.90;;;3.08;;
52380;SDS011;38310;52.796;6.942;2022-08-01T09:58:08;7.80;;;2.83;;
52380;SDS011;38310;52.796;6.942;2022-08-01T10:00:35;11.88;;;2.70;;
52380;SDS011;38310;52.796;6.942;2022-08-01T10:03:21;8.55;;;2.90;;
52380;SDS011;38310;52.796;6.942;2022-08-01T10:05:48;12.73;;;3.38;;
52380;SDS011;38310;52.796;6.942;2022-08-01T10:08:15;9.90;;;2.22;;
52380;SDS011;38310;52.796;6.942;2022-08-01T10:10:41;8.55;;;2.40;;
52380;SDS011;38310;52.796;6.942;2022-08-01T10:13:08;10.50;;;2.63;;
52380;SDS011;38310;52.796;6.942;2022-08-01T10:15:35;8.23;;;2.50;;
52380;SDS011;38310;52.796;6.942;2022-08-01T10:18:03;7.95;;;2.40;;
52380;SDS011;38310;52.796;6.942;2022-08-01T10:20:31;10.10;;;2.10;;
52380;SDS011;38310;52.796;6.942;2022-08-01T10:22:59;9.38;;;2.45;;
52380;SDS011;38310;52.796;6.942;2022-08-01T10:25:34;8.77;;;2.72;;
52380;SDS011;38310;52.796;6.942;2022-08-01T10:28:17;7.38;;;2.30;;
52380;SDS011;38310;52.796;6.942;2022-08-01T10:30:45;9.85;;;2.35;;
52380;SDS011;38310;52.796;6.942;2022-08-01T10:33:12;10.10;;;2.67;;
52380;SDS011;38310;52.796;6.942;2022-08-01T10:35:38;11.13;;;2.38;;
52380;SDS011;38310;52.796;6.942;2022-08-01T10:38:05;9.32;;;2.20;;
52380;SDS011;38310;52.796;6.942;2022-08-01T10:40:31;10.38;;;2.47;;
52380;SDS011;38310;52.796;6.942;2022-08-01T10:42:57;6.60;;;2.20;;
52380;SDS011;38310;52.796;6.942;2022-08-01T10:45:23;10.05;;;2.20;;
52380;SDS011;38310;52.796;6.942;2022-08-01T10:50:37;6.85;;;2.00;;
52380;SDS011;38310;52.796;6.942;2022-08-01T10:53:10;5.85;;;2.00;;
52380;SDS011;38310;52.796;6.942;2022-08-01T10:58:25;7.38;;;1.80;;
52380;SDS011;38310;52.796;6.942;2022-08-01T11:03:37;9.27;;;2.08;;
52380;SDS011;38310;52.796;6.942;2022-08-01T11:06:03;5.90;;;2.00;;
52380;SDS011;38310;52.796;6.942;2022-08-01T11:08:30;7.82;;;2.20;;
52380;SDS011;38310;52.796;6.942;2022-08-01T11:11:00;7.22;;;2.13;;
52380;SDS011;38310;52.796;6.942;2022-08-01T11:16:26;6.50;;;2.10;;
52380;SDS011;38310;52.796;6.942;2022-08-01T11:18:53;10.15;;;1.98;;
52380;SDS011;38310;52.796;6.942;2022-08-01T11:21:19;7.20;;;2.33;;
52380;SDS011;38310;52.796;6.942;2022-08-01T11:23:49;11.40;;;2.40;;
52380;SDS011;38310;52.796;6.942;2022-08-01T11:26:19;6.18;;;1.60;;
52380;SDS011;38310;52.796;6.942;2022-08-01T11:28:46;4.72;;;1.80;;
52380;SDS011;38310;52.796;6.942;2022-08-01T11:31:39;6.07;;;2.10;;
52380;SDS011;38310;52.796;6.942;2022-08-01T11:34:07;6.30;;;1.88;;
52380;SDS011;38310;52.796;6.942;2022-08-01T11:36:33;9.55;;;1.83;;
52380;SDS011;38310;52.796;6.942;2022-08-01T11:41:26;5.50;;;2.05;;
52380;SDS011;38310;52.796;6.942;2022-08-01T11:43:57;7.10;;;1.92;;
52380;SDS011;38310;52.796;6.942;2022-08-01T11:49:33;4.97;;;1.63;;
52380;SDS011;38310;52.796;6.942;2022-08-01T11:52:10;4.78;;;1.80;;
52380;SDS011;38310;52.796;6.942;2022-08-01T11:54:49;8.40;;;2.30;;
52380;SDS011;38310;52.796;6.942;2022-08-01T11:57:34;6.25;;;1.48;;
52380;SDS011;38310;52.796;6.942;2022-08-01T12:00:00;6.07;;;1.67;;
52380;SDS011;38310;52.796;6.942;2022-08-01T12:02:37;8.45;;;1.60;;
52380;SDS011;38310;52.796;6.942;2022-08-01T12:07:39;5.32;;;1.63;;
52380;SDS011;38310;52.796;6.942;2022-08-01T12:10:08;5.65;;;1.40;;
52380;SDS011;38310;52.796;6.942;2022-08-01T12:15:22;6.47;;;1.80;;
52380;SDS011;38310;52.796;6.942;2022-08-01T12:17:54;5.65;;;1.73;;
52380;SDS011;38310;52.796;6.942;2022-08-01T12:20:25;5.18;;;1.40;;
52380;SDS011;38310;52.796;6.942;2022-08-01T12:22:56;5.47;;;1.40;;
52380;SDS011;38310;52.796;6.942;2022-08-01T12:25:24;8.88;;;1.92;;
52380;SDS011;38310;52.796;6.942;2022-08-01T12:27:50;6.03;;;1.52;;
52380;SDS011;38310;52.796;6.942;2022-08-01T12:30:17;5.30;;;1.50;;
52380;SDS011;38310;52.796;6.942;2022-08-01T12:32:47;6.53;;;1.60;;
52380;SDS011;38310;52.796;6.942;2022-08-01T12:35:15;5.15;;;1.73;;
52380;SDS011;38310;52.796;6.942;2022-08-01T12:37:52;5.88;;;1.65;;
52380;SDS011;38310;52.796;6.942;2022-08-01T12:40:21;5.47;;;1.83;;
52380;SDS011;38310;52.796;6.942;2022-08-01T12:42:58;8.88;;;1.73;;
52380;SDS011;38310;52.796;6.942;2022-08-01T12:45:35;7.22;;;1.83;;
52380;SDS011;38310;52.796;6.942;2022-08-01T12:48:11;8.85;;;2.00;;
52380;SDS011;38310;52.796;6.942;2022-08-01T12:50:43;5.00;;;1.23;;
52380;SDS011;38310;52.796;6.942;2022-08-01T12:53:10;5.60;;;1.92;;
52380;SDS011;38310;52.796;6.942;2022-08-01T12:55:54;2.17;;;1.35;;
52380;SDS011;38310;52.796;6.942;2022-08-01T12:58:21;3.95;;;1.10;;
52380;SDS011;38310;52.796;6.942;2022-08-01T13:00:48;5.80;;;1.60;;
52380;SDS011;38310;52.796;6.942;2022-08-01T13:03:16;5.38;;;1.48;;
52380;SDS011;38310;52.796;6.942;2022-08-01T13:05:51;10.10;;;1.85;;
52380;SDS011;38310;52.796;6.942;2022-08-01T13:08:22;4.78;;;1.65;;
52380;SDS011;38310;52.796;6.942;2022-08-01T13:10:49;5.78;;;1.63;;
52380;SDS011;38310;52.796;6.942;2022-08-01T13:13:24;8.13;;;2.00;;
52380;SDS011;38310;52.796;6.942;2022-08-01T13:16:02;6.63;;;1.33;;
52380;SDS011;38310;52.796;6.942;2022-08-01T13:18:31;5.90;;;1.25;;
52380;SDS011;38310;52.796;6.942;2022-08-01T13:21:14;5.32;;;1.73;;
52380;SDS011;38310;52.796;6.942;2022-08-01T13:29:11;3.90;;;1.30;;
52380;SDS011;38310;52.796;6.942;2022-08-01T13:31:39;4.65;;;1.40;;
52380;SDS011;38310;52.796;6.942;2022-08-01T13:34:07;7.80;;;1.92;;
52380;SDS011;38310;52.796;6.942;2022-08-01T13:36:34;7.85;;;1.63;;
52380;SDS011;38310;52.796;6.942;2022-08-01T13:39:01;5.05;;;1.42;;
52380;SDS011;38310;52.796;6.942;2022-08-01T13:41:47;9.43;;;1.65;;
52380;SDS011;38310;52.796;6.942;2022-08-01T13:44:13;3.83;;;1.33;;
52380;SDS011;38310;52.796;6.942;2022-08-01T13:46:39;5.32;;;1.40;;
52380;SDS011;38310;52.796;6.942;2022-08-01T13:49:06;5.45;;;1.40;;
52380;SDS011;38310;52.796;6.942;2022-08-01T13:51:33;4.88;;;1.40;;
52380;SDS011;38310;52.796;6.942;2022-08-01T13:53:59;5.70;;;1.20;;
52380;SDS011;38310;52.796;6.942;2022-08-01T13:56:25;3.05;;;1.08;;
52380;SDS011;38310;52.796;6.942;2022-08-01T13:58:55;4.50;;;1.25;;
52380;SDS011;38310;52.796;6.942;2022-08-01T14:01:22;5.20;;;1.55;;
52380;SDS011;38310;52.796;6.942;2022-08-01T14:03:49;5.15;;;1.42;;
52380;SDS011;38310;52.796;6.942;2022-08-01T14:06:16;4.88;;;1.58;;
52380;SDS011;38310;52.796;6.942;2022-08-01T14:08:43;5.22;;;1.45;;
52380;SDS011;38310;52.796;6.942;2022-08-01T14:11:09;5.47;;;1.30;;
52380;SDS011;38310;52.796;6.942;2022-08-01T14:13:35;3.90;;;1.35;;
52380;SDS011;38310;52.796;6.942;2022-08-01T14:16:03;7.70;;;1.27;;
52380;SDS011;38310;52.796;6.942;2022-08-01T14:18:30;5.55;;;1.15;;
52380;SDS011;38310;52.796;6.942;2022-08-01T14:20:55;5.25;;;1.20;;
52380;SDS011;38310;52.796;6.942;2022-08-01T14:23:21;4.93;;;1.40;;
52380;SDS011;38310;52.796;6.942;2022-08-01T14:25:47;5.85;;;1.38;;
52380;SDS011;38310;52.796;6.942;2022-08-01T14:28:13;6.50;;;1.50;;
52380;SDS011;38310;52.796;6.942;2022-08-01T14:30:39;5.57;;;1.30;;
52380;SDS011;38310;52.796;6.942;2022-08-01T14:33:07;3.67;;;1.42;;
52380;SDS011;38310;52.796;6.942;2022-08-01T14:35:33;5.32;;;1.20;;
52380;SDS011;38310;52.796;6.942;2022-08-01T14:37:59;5.15;;;1.48;;
52380;SDS011;38310;52.796;6.942;2022-08-01T14:40:25;3.88;;;1.10;;
52380;SDS011;38310;52.796;6.942;2022-08-01T14:42:51;4.60;;;1.17;;
52380;SDS011;38310;52.796;6.942;2022-08-01T14:45:16;4.30;;;1.02;;
52380;SDS011;38310;52.796;6.942;2022-08-01T14:47:42;7.55;;;1.90;;
52380;SDS011;38310;52.796;6.942;2022-08-01T14:50:10;5.38;;;1.42;;
52380;SDS011;38310;52.796;6.942;2022-08-01T14:52:38;4.00;;;1.33;;
52380;SDS011;38310;52.796;6.942;2022-08-01T14:55:05;7.28;;;1.40;;
52380;SDS011;38310;52.796;6.942;2022-08-01T14:57:32;6.22;;;1.30;;
52380;SDS011;38310;52.796;6.942;2022-08-01T14:59:59;4.28;;;1.42;;
52380;SDS011;38310;52.796;6.942;2022-08-01T15:02:24;3.90;;;1.33;;
52380;SDS011;38310;52.796;6.942;2022-08-01T15:04:50;8.35;;;1.30;;
52380;SDS011;38310;52.796;6.942;2022-08-01T15:07:16;5.28;;;1.00;;
52380;SDS011;38310;52.796;6.942;2022-08-01T15:09:42;4.70;;;1.20;;
52380;SDS011;38310;52.796;6.942;2022-08-01T15:12:09;6.28;;;1.55;;
52380;SDS011;38310;52.796;6.942;2022-08-01T15:14:35;4.75;;;1.30;;
52380;SDS011;38310;52.796;6.942;2022-08-01T15:17:23;3.63;;;1.30;;
52380;SDS011;38310;52.796;6.942;2022-08-01T15:19:53;6.13;;;1.48;;
52380;SDS011;38310;52.796;6.942;2022-08-01T15:22:20;8.63;;;1.52;;
52380;SDS011;38310;52.796;6.942;2022-08-01T15:24:47;7.28;;;1.52;;
52380;SDS011;38310;52.796;6.942;2022-08-01T15:27:13;3.95;;;1.10;;
52380;SDS011;38310;52.796;6.942;2022-08-01T15:29:39;3.30;;;1.48;;
52380;SDS011;38310;52.796;6.942;2022-08-01T15:32:05;4.10;;;1.35;;
52380;SDS011;38310;52.796;6.942;2022-08-01T15:34:33;4.15;;;1.20;;
52380;SDS011;38310;52.796;6.942;2022-08-01T15:37:00;3.75;;;1.35;;
52380;SDS011;38310;52.796;6.942;2022-08-01T15:39:26;5.45;;;1.25;;
52380;SDS011;38310;52.796;6.942;2022-08-01T15:41:52;3.75;;;1.30;;
52380;SDS011;38310;52.796;6.942;2022-08-01T15:44:19;4.65;;;1.33;;
52380;SDS011;38310;52.796;6.942;2022-08-01T15:46:49;6.63;;;1.45;;